sensor_id;sensor_type;location;lat;lon;timestamp;pressure;altitude;pressure_sealevel;temperature;humidity
55171;BME280;41060;47.510;8.680;2023-08-31T00:00:52;96646.63;;;18.20;51.07
55171;BME280;41060;47.510;8.680;2023-08-31T00:03:19;96651.53;;;18.17;51.51
55171;BME280;41060;47.510;8.680;2023-08-31T00:05:46;96653.06;;;18.11;51.69
55171;BME280;41060;47.510;8.680;2023-08-31T00:08:17;96651.00;;;17.98;51.79
55171;BME280;41060;47.510;8.680;2023-08-31T00:10:54;96653.91;;;18.12;51.60
55171;BME280;41060;47.510;8.680;2023-08-31T00:13:21;96650.41;;;18.26;50.80
55171;BME280;41060;47.510;8.680;2023-08-31T00:15:48;96650.03;;;18.14;50.42
55171;BME280;41060;47.510;8.680;2023-08-31T00:18:15;96657.84;;;18.24;50.01
55171;BME280;41060;47.510;8.680;2023-08-31T00:20:43;96635.06;;;18.20;49.96
55171;BME280;41060;47.510;8.680;2023-08-31T00:23:11;96646.72;;;18.27;50.22
55171;BME280;41060;47.510;8.680;2023-08-31T00:25:41;96642.78;;;18.37;50.02
55171;BME280;41060;47.510;8.680;2023-08-31T00:28:08;96651.19;;;18.34;49.91
55171;BME280;41060;47.510;8.680;2023-08-31T00:30:38;96646.53;;;18.14;50.60
55171;BME280;41060;47.510;8.680;2023-08-31T00:33:04;96651.69;;;18.15;50.51
55171;BME280;41060;47.510;8.680;2023-08-31T00:35:35;96618.63;;;18.08;50.01
55171;BME280;41060;47.510;8.680;2023-08-31T00:38:03;96661.69;;;18.21;50.24
55171;BME280;41060;47.510;8.680;2023-08-31T00:40:30;96660.03;;;18.20;50.20
55171;BME280;41060;47.510;8.680;2023-08-31T00:42:59;96649.03;;;17.92;50.70
55171;BME280;41060;47.510;8.680;2023-08-31T00:45:26;96655.22;;;17.93;50.83
55171;BME280;41060;47.510;8.680;2023-08-31T00:47:53;96651.22;;;18.12;50.22
55171;BME280;41060;47.510;8.680;2023-08-31T00:50:20;96657.59;;;18.11;50.41
55171;BME280;41060;47.510;8.680;2023-08-31T00:52:47;96651.66;;;18.00;50.58
55171;BME280;41060;47.510;8.680;2023-08-31T00:55:15;96655.53;;;17.98;50.68
55171;BME280;41060;47.510;8.680;2023-08-31T00:57:43;96654.06;;;18.10;50.52
55171;BME280;41060;47.510;8.680;2023-08-31T01:00:12;96652.66;;;17.99;50.57
55171;BME280;41060;47.510;8.680;2023-08-31T01:02:45;96645.41;;;17.85;50.89
55171;BME280;41060;47.510;8.680;2023-08-31T01:05:25;96649.94;;;17.85;51.01
55171;BME280;41060;47.510;8.680;2023-08-31T01:08:03;96654.84;;;17.96;50.88
55171;BME280;41060;47.510;8.680;2023-08-31T01:10:41;96658.56;;;17.95;50.94
55171;BME280;41060;47.510;8.680;2023-08-31T01:13:11;96657.25;;;17.91;51.19
55171;BME280;41060;47.510;8.680;2023-08-31T01:15:42;96653.56;;;17.92;51.21
55171;BME280;41060;47.510;8.680;2023-08-31T01:18:14;96652.22;;;17.88;51.23
55171;BME280;41060;47.510;8.680;2023-08-31T01:20:48;96657.41;;;17.89;51.02
55171;BME280;41060;47.510;8.680;2023-08-31T01:23:19;96646.53;;;17.91;50.96
55171;BME280;41060;47.510;8.680;2023-08-31T01:25:51;96650.38;;;17.88;51.01
55171;BME280;41060;47.510;8.680;2023-08-31T01:28:20;96651.44;;;17.79;51.11
55171;BME280;41060;47.510;8.680;2023-08-31T01:30:47;96649.84;;;17.70;51.47
55171;BME280;41060;47.510;8.680;2023-08-31T01:33:16;96657.97;;;17.85;51.20
55171;BME280;41060;47.510;8.680;2023-08-31T01:35:45;96661.75;;;17.90;50.84
55171;BME280;41060;47.510;8.680;2023-08-31T01:38:15;96656.34;;;17.98;50.78
55171;BME280;41060;47.510;8.680;2023-08-31T01:40:49;96659.69;;;18.00;50.68
55171;BME280;41060;47.510;8.680;2023-08-31T01:43:21;96657.44;;;17.81;50.88
55171;BME280;41060;47.510;8.680;2023-08-31T01:45:48;96590.75;;;17.49;50.71
55171;BME280;41060;47.510;8.680;2023-08-31T01:48:15;96671.31;;;17.93;50.90
55171;BME280;41060;47.510;8.680;2023-08-31T01:50:42;96684.59;;;17.78;51.30
55171;BME280;41060;47.510;8.680;2023-08-31T01:53:09;96689.25;;;17.84;51.26
55171;BME280;41060;47.510;8.680;2023-08-31T01:55:36;96678.78;;;17.97;50.98
55171;BME280;41060;47.510;8.680;2023-08-31T01:58:03;96681.06;;;18.09;50.74
55171;BME280;41060;47.510;8.680;2023-08-31T02:00:31;96677.50;;;18.16;50.84
55171;BME280;41060;47.510;8.680;2023-08-31T02:03:00;96685.41;;;18.10;51.52
55171;BME280;41060;47.510;8.680;2023-08-31T02:05:27;96692.72;;;17.93;52.29
55171;BME280;41060;47.510;8.680;2023-08-31T02:07:56;96692.91;;;17.91;52.60
55171;BME280;41060;47.510;8.680;2023-08-31T02:10:23;96694.06;;;17.89;53.03
55171;BME280;41060;47.510;8.680;2023-08-31T02:12:52;96694.28;;;17.87;53.16
55171;BME280;41060;47.510;8.680;2023-08-31T02:15:18;96695.66;;;17.75;52.92
55171;BME280;41060;47.510;8.680;2023-08-31T02:17:46;96691.13;;;17.76;52.60
55171;BME280;41060;47.510;8.680;2023-08-31T02:20:13;96696.47;;;17.76;52.84
55171;BME280;41060;47.510;8.680;2023-08-31T02:22:40;96698.59;;;17.88;52.36
55171;BME280;41060;47.510;8.680;2023-08-31T02:25:09;96691.06;;;17.92;51.75
55171;BME280;41060;47.510;8.680;2023-08-31T02:27:38;96694.91;;;17.89;51.61
55171;BME280;41060;47.510;8.680;2023-08-31T02:30:06;96701.72;;;17.69;51.56
55171;BME280;41060;47.510;8.680;2023-08-31T02:32:34;96699.75;;;17.63;51.51
55171;BME280;41060;47.510;8.680;2023-08-31T02:35:03;96703.22;;;17.72;51.32
55171;BME280;41060;47.510;8.680;2023-08-31T02:37:30;96703.75;;;17.59;51.47
55171;BME280;41060;47.510;8.680;2023-08-31T02:39:56;96703.81;;;17.51;51.47
55171;BME280;41060;47.510;8.680;2023-08-31T02:42:23;96703.50;;;17.46;51.31
55171;BME280;41060;47.510;8.680;2023-08-31T02:44:52;96693.09;;;17.51;51.26
55171;BME280;41060;47.510;8.680;2023-08-31T02:47:18;96698.53;;;17.65;50.99
55171;BME280;41060;47.510;8.680;2023-08-31T02:49:45;96695.88;;;17.65;51.05
55171;BME280;41060;47.510;8.680;2023-08-31T02:52:14;96705.00;;;17.48;50.88
55171;BME280;41060;47.510;8.680;2023-08-31T02:54:41;96684.06;;;17.21;51.60
55171;BME280;41060;47.510;8.680;2023-08-31T02:57:08;96702.72;;;17.29;51.89
55171;BME280;41060;47.510;8.680;2023-08-31T02:59:36;96706.84;;;17.48;51.72
55171;BME280;41060;47.510;8.680;2023-08-31T03:02:04;96708.38;;;17.73;51.13
55171;BME280;41060;47.510;8.680;2023-08-31T03:04:34;96705.25;;;17.61;51.00
55171;BME280;41060;47.510;8.680;2023-08-31T03:07:03;96708.25;;;17.66;50.84
55171;BME280;41060;47.510;8.680;2023-08-31T03:09:33;96698.59;;;17.57;50.93
55171;BME280;41060;47.510;8.680;2023-08-31T03:12:00;96707.72;;;17.40;50.93
55171;BME280;41060;47.510;8.680;2023-08-31T03:14:30;96703.28;;;17.55;51.06
55171;BME280;41060;47.510;8.680;2023-08-31T03:16:56;96705.66;;;17.11;52.21
55171;BME280;41060;47.510;8.680;2023-08-31T03:19:23;96719.00;;;17.19;52.03
55171;BME280;41060;47.510;8.680;2023-08-31T03:21:50;96718.50;;;17.16;51.67
55171;BME280;41060;47.510;8.680;2023-08-31T03:24:16;96724.28;;;16.97;52.33
55171;BME280;41060;47.510;8.680;2023-08-31T03:26:45;96720.75;;;17.04;52.02
55171;BME280;41060;47.510;8.680;2023-08-31T03:29:12;96732.75;;;17.00;51.59
55171;BME280;41060;47.510;8.680;2023-08-31T03:31:39;96729.63;;;16.56;52.70
55171;BME280;41060;47.510;8.680;2023-08-31T03:34:06;96737.47;;;16.82;52.21
55171;BME280;41060;47.510;8.680;2023-08-31T03:36:32;96728.63;;;16.81;51.79
55171;BME280;41060;47.510;8.680;2023-08-31T03:38:59;96720.78;;;16.64;52.30
55171;BME280;41060;47.510;8.680;2023-08-31T03:41:28;96727.47;;;16.60;52.67
55171;BME280;41060;47.510;8.680;2023-08-31T03:43:57;96727.28;;;16.69;52.83
55171;BME280;41060;47.510;8.680;2023-08-31T03:46:26;96729.31;;;16.59;53.34
55171;BME280;41060;47.510;8.680;2023-08-31T03:48:53;96715.44;;;16.56;53.77
55171;BME280;41060;47.510;8.680;2023-08-31T03:51:19;96727.63;;;16.74;53.91
55171;BME280;41060;47.510;8.680;2023-08-31T03:53:46;96710.59;;;16.59;53.84
55171;BME280;41060;47.510;8.680;2023-08-31T03:56:13;96730.44;;;16.81;54.20
55171;BME280;41060;47.510;8.680;2023-08-31T03:58:40;96729.28;;;16.75;54.87
55171;BME280;41060;47.510;8.680;2023-08-31T04:01:08;96730.44;;;16.81;55.17
55171;BME280;41060;47.510;8.680;2023-08-31T04:03:36;96744.34;;;16.76;55.70
55171;BME280;41060;47.510;8.680;2023-08-31T04:06:03;96744.66;;;16.81;55.47
55171;BME280;41060;47.510;8.680;2023-08-31T04:08:30;96745.50;;;16.98;54.88
55171;BME280;41060;47.510;8.680;2023-08-31T04:10:57;96748.47;;;16.87;55.78
55171;BME280;41060;47.510;8.680;2023-08-31T04:13:24;96734.66;;;16.67;55.60
55171;BME280;41060;47.510;8.680;2023-08-31T04:15:51;96759.03;;;16.64;55.03
55171;BME280;41060;47.510;8.680;2023-08-31T04:18:20;96751.53;;;16.68;55.23
55171;BME280;41060;47.510;8.680;2023-08-31T04:20:48;96759.38;;;16.61;55.92
55171;BME280;41060;47.510;8.680;2023-08-31T04:23:16;96761.91;;;16.38;55.26
55171;BME280;41060;47.510;8.680;2023-08-31T04:25:43;96765.06;;;16.42;55.18
55171;BME280;41060;47.510;8.680;2023-08-31T04:28:09;96768.88;;;16.56;55.59
55171;BME280;41060;47.510;8.680;2023-08-31T04:30:36;96761.88;;;16.63;54.83
55171;BME280;41060;47.510;8.680;2023-08-31T04:33:04;96774.75;;;16.67;55.42
55171;BME280;41060;47.510;8.680;2023-08-31T04:35:32;96777.22;;;16.77;55.67
55171;BME280;41060;47.510;8.680;2023-08-31T04:38:02;96788.59;;;16.63;55.16
55171;BME280;41060;47.510;8.680;2023-08-31T04:40:29;96789.06;;;16.26;54.97
55171;BME280;41060;47.510;8.680;2023-08-31T04:42:55;96779.56;;;16.15;55.66
55171;BME280;41060;47.510;8.680;2023-08-31T04:45:22;96784.94;;;16.31;54.90
55171;BME280;41060;47.510;8.680;2023-08-31T04:47:49;96781.25;;;16.48;54.79
55171;BME280;41060;47.510;8.680;2023-08-31T04:50:17;96781.91;;;16.42;54.67
55171;BME280;41060;47.510;8.680;2023-08-31T04:52:44;96774.44;;;16.54;54.49
55171;BME280;41060;47.510;8.680;2023-08-31T04:55:13;96779.25;;;16.50;54.33
55171;BME280;41060;47.510;8.680;2023-08-31T04:57:42;96775.91;;;16.40;54.17
55171;BME280;41060;47.510;8.680;2023-08-31T05:00:09;96782.91;;;16.09;55.52
55171;BME280;41060;47.510;8.680;2023-08-31T05:02:37;96804.28;;;16.17;55.20
55171;BME280;41060;47.510;8.680;2023-08-31T05:05:08;96801.78;;;16.40;55.52
55171;BME280;41060;47.510;8.680;2023-08-31T05:07:34;96793.28;;;16.53;55.02
55171;BME280;41060;47.510;8.680;2023-08-31T05:10:04;96806.28;;;16.47;55.71
55171;BME280;41060;47.510;8.680;2023-08-31T05:12:33;96809.16;;;16.70;55.06
55171;BME280;41060;47.510;8.680;2023-08-31T05:15:00;96809.16;;;16.62;55.62
55171;BME280;41060;47.510;8.680;2023-08-31T05:17:27;96817.50;;;16.43;55.85
55171;BME280;41060;47.510;8.680;2023-08-31T05:19:53;96811.81;;;16.38;55.60
55171;BME280;41060;47.510;8.680;2023-08-31T05:22:20;96817.84;;;16.64;55.43
55171;BME280;41060;47.510;8.680;2023-08-31T05:24:48;96818.34;;;16.76;55.14
55171;BME280;41060;47.510;8.680;2023-08-31T05:27:16;96818.53;;;16.82;54.80
55171;BME280;41060;47.510;8.680;2023-08-31T05:29:42;96822.50;;;16.86;55.84
55171;BME280;41060;47.510;8.680;2023-08-31T05:32:09;96817.31;;;16.77;56.16
55171;BME280;41060;47.510;8.680;2023-08-31T05:34:38;96825.03;;;16.88;56.24
55171;BME280;41060;47.510;8.680;2023-08-31T05:37:05;96834.56;;;16.82;56.38
55171;BME280;41060;47.510;8.680;2023-08-31T05:39:32;96841.06;;;16.96;56.03
55171;BME280;41060;47.510;8.680;2023-08-31T05:41:59;96834.38;;;16.92;55.88
55171;BME280;41060;47.510;8.680;2023-08-31T05:44:27;96847.94;;;17.07;55.66
55171;BME280;41060;47.510;8.680;2023-08-31T05:46:54;96841.09;;;17.12;55.21
55171;BME280;41060;47.510;8.680;2023-08-31T05:49:20;96844.75;;;17.19;54.68
55171;BME280;41060;47.510;8.680;2023-08-31T05:51:47;96847.09;;;17.14;54.86
55171;BME280;41060;47.510;8.680;2023-08-31T05:54:17;96846.75;;;17.09;54.85
55171;BME280;41060;47.510;8.680;2023-08-31T05:56:43;96847.28;;;17.13;54.71
55171;BME280;41060;47.510;8.680;2023-08-31T05:59:10;96847.28;;;17.13;55.05
55171;BME280;41060;47.510;8.680;2023-08-31T06:01:38;96858.78;;;17.21;54.85
55171;BME280;41060;47.510;8.680;2023-08-31T06:04:05;96866.16;;;17.19;56.38
55171;BME280;41060;47.510;8.680;2023-08-31T06:06:31;96859.75;;;17.45;56.49
55171;BME280;41060;47.510;8.680;2023-08-31T06:08:59;96871.75;;;17.65;55.38
55171;BME280;41060;47.510;8.680;2023-08-31T06:11:28;96864.38;;;17.67;55.27
55171;BME280;41060;47.510;8.680;2023-08-31T06:13:56;96864.16;;;17.93;54.96
55171;BME280;41060;47.510;8.680;2023-08-31T06:16:23;96866.81;;;17.93;52.75
55171;BME280;41060;47.510;8.680;2023-08-31T06:18:51;96876.72;;;17.76;53.28
55171;BME280;41060;47.510;8.680;2023-08-31T06:21:18;96876.44;;;17.63;53.50
55171;BME280;41060;47.510;8.680;2023-08-31T06:23:45;96880.78;;;17.64;53.53
55171;BME280;41060;47.510;8.680;2023-08-31T06:26:12;96882.94;;;17.69;53.55
55171;BME280;41060;47.510;8.680;2023-08-31T06:28:38;96863.06;;;17.63;53.21
55171;BME280;41060;47.510;8.680;2023-08-31T06:31:05;96870.06;;;17.72;53.24
55171;BME280;41060;47.510;8.680;2023-08-31T06:33:32;96880.25;;;17.77;53.40
55171;BME280;41060;47.510;8.680;2023-08-31T06:35:59;96887.31;;;17.53;53.80
55171;BME280;41060;47.510;8.680;2023-08-31T06:38:27;96894.06;;;17.33;54.34
55171;BME280;41060;47.510;8.680;2023-08-31T06:40:53;96897.22;;;17.28;54.88
55171;BME280;41060;47.510;8.680;2023-08-31T06:43:24;96866.66;;;17.07;54.67
55171;BME280;41060;47.510;8.680;2023-08-31T06:45:52;96899.41;;;17.33;54.40
55171;BME280;41060;47.510;8.680;2023-08-31T06:48:19;96900.09;;;17.43;54.37
55171;BME280;41060;47.510;8.680;2023-08-31T06:50:46;96906.09;;;17.37;55.03
55171;BME280;41060;47.510;8.680;2023-08-31T06:53:15;96908.13;;;17.35;54.76
55171;BME280;41060;47.510;8.680;2023-08-31T06:55:44;96903.41;;;17.37;55.72
55171;BME280;41060;47.510;8.680;2023-08-31T06:58:11;96902.91;;;17.42;55.81
55171;BME280;41060;47.510;8.680;2023-08-31T07:00:38;96905.75;;;17.56;55.36
55171;BME280;41060;47.510;8.680;2023-08-31T07:03:04;96912.78;;;17.49;54.92
55171;BME280;41060;47.510;8.680;2023-08-31T07:05:33;96915.78;;;17.30;54.54
55171;BME280;41060;47.510;8.680;2023-08-31T07:08:01;96920.13;;;17.55;54.62
55171;BME280;41060;47.510;8.680;2023-08-31T07:10:29;96912.69;;;17.74;54.28
55171;BME280;41060;47.510;8.680;2023-08-31T07:12:56;96914.53;;;17.81;54.42
55171;BME280;41060;47.510;8.680;2023-08-31T07:15:26;96906.50;;;17.89;54.04
55171;BME280;41060;47.510;8.680;2023-08-31T07:17:52;96909.50;;;17.94;53.54
55171;BME280;41060;47.510;8.680;2023-08-31T07:20:19;96903.31;;;17.94;53.19
55171;BME280;41060;47.510;8.680;2023-08-31T07:22:46;96904.28;;;18.01;53.59
55171;BME280;41060;47.510;8.680;2023-08-31T07:25:13;96920.97;;;18.11;53.50
55171;BME280;41060;47.510;8.680;2023-08-31T07:27:41;96932.50;;;18.20;53.44
55171;BME280;41060;47.510;8.680;2023-08-31T07:30:08;96941.19;;;18.30;53.22
55171;BME280;41060;47.510;8.680;2023-08-31T07:32:35;96955.59;;;18.29;53.49
55171;BME280;41060;47.510;8.680;2023-08-31T07:35:03;96945.28;;;18.10;53.50
55171;BME280;41060;47.510;8.680;2023-08-31T07:37:33;96940.69;;;17.87;53.63
55171;BME280;41060;47.510;8.680;2023-08-31T07:40:02;96956.38;;;17.98;53.79
55171;BME280;41060;47.510;8.680;2023-08-31T07:42:34;96953.16;;;18.03;53.20
55171;BME280;41060;47.510;8.680;2023-08-31T07:45:02;96965.75;;;17.78;53.27
55171;BME280;41060;47.510;8.680;2023-08-31T07:47:29;96959.91;;;17.91;53.54
55171;BME280;41060;47.510;8.680;2023-08-31T07:49:56;96959.97;;;17.42;52.93
55171;BME280;41060;47.510;8.680;2023-08-31T07:52:22;96967.31;;;17.64;52.83
55171;BME280;41060;47.510;8.680;2023-08-31T07:54:51;96968.59;;;17.77;52.54
55171;BME280;41060;47.510;8.680;2023-08-31T07:57:19;96941.06;;;17.36;52.66
55171;BME280;41060;47.510;8.680;2023-08-31T07:59:48;96970.13;;;17.14;53.64
55171;BME280;41060;47.510;8.680;2023-08-31T08:02:16;96968.81;;;17.26;53.50
55171;BME280;41060;47.510;8.680;2023-08-31T08:04:45;96941.72;;;17.46;52.71
55171;BME280;41060;47.510;8.680;2023-08-31T08:07:11;96963.78;;;17.72;52.64
55171;BME280;41060;47.510;8.680;2023-08-31T08:09:41;96970.44;;;17.76;52.95
55171;BME280;41060;47.510;8.680;2023-08-31T08:12:08;96980.84;;;17.87;52.73
55171;BME280;41060;47.510;8.680;2023-08-31T08:14:34;96986.84;;;17.97;51.93
55171;BME280;41060;47.510;8.680;2023-08-31T08:17:01;96989.50;;;17.81;52.17
55171;BME280;41060;47.510;8.680;2023-08-31T08:19:30;96983.69;;;17.78;51.09
55171;BME280;41060;47.510;8.680;2023-08-31T08:21:56;96986.03;;;17.73;51.77
55171;BME280;41060;47.510;8.680;2023-08-31T08:24:23;96985.31;;;18.03;51.74
55171;BME280;41060;47.510;8.680;2023-08-31T08:26:50;96989.16;;;18.17;51.17
55171;BME280;41060;47.510;8.680;2023-08-31T08:29:16;96991.47;;;18.20;50.67
55171;BME280;41060;47.510;8.680;2023-08-31T08:31:43;96985.78;;;18.23;51.09
55171;BME280;41060;47.510;8.680;2023-08-31T08:34:10;97001.69;;;18.24;51.08
55171;BME280;41060;47.510;8.680;2023-08-31T08:36:38;97003.38;;;18.17;51.21
55171;BME280;41060;47.510;8.680;2023-08-31T08:39:04;97005.84;;;18.27;51.38
55171;BME280;41060;47.510;8.680;2023-08-31T08:41:32;97003.50;;;18.32;50.93
55171;BME280;41060;47.510;8.680;2023-08-31T08:44:02;97007.47;;;18.44;50.58
55171;BME280;41060;47.510;8.680;2023-08-31T08:46:29;97008.28;;;18.53;50.31
55171;BME280;41060;47.510;8.680;2023-08-31T08:48:59;97020.28;;;18.65;50.08
55171;BME280;41060;47.510;8.680;2023-08-31T08:51:27;97023.25;;;18.31;49.90
55171;BME280;41060;47.510;8.680;2023-08-31T08:53:56;97031.22;;;17.92;50.59
55171;BME280;41060;47.510;8.680;2023-08-31T08:56:23;97020.66;;;17.98;51.28
55171;BME280;41060;47.510;8.680;2023-08-31T08:58:51;97015.56;;;18.28;50.84
55171;BME280;41060;47.510;8.680;2023-08-31T09:01:18;97010.16;;;18.44;50.61
55171;BME280;41060;47.510;8.680;2023-08-31T09:03:48;97007.91;;;18.56;49.78
55171;BME280;41060;47.510;8.680;2023-08-31T09:06:15;97010.91;;;18.61;49.62
55171;BME280;41060;47.510;8.680;2023-08-31T09:08:43;97013.13;;;18.49;49.26
55171;BME280;41060;47.510;8.680;2023-08-31T09:11:19;97017.13;;;18.61;49.61
55171;BME280;41060;47.510;8.680;2023-08-31T09:13:46;97015.44;;;18.68;49.40
55171;BME280;41060;47.510;8.680;2023-08-31T09:16:23;96986.66;;;18.54;49.31
55171;BME280;41060;47.510;8.680;2023-08-31T09:18:50;97017.34;;;18.91;48.69
55171;BME280;41060;47.510;8.680;2023-08-31T09:21:18;97014.53;;;19.07;48.49
55171;BME280;41060;47.510;8.680;2023-08-31T09:23:47;97017.38;;;19.13;48.32
55171;BME280;41060;47.510;8.680;2023-08-31T09:26:14;97020.69;;;18.85;48.88
55171;BME280;41060;47.510;8.680;2023-08-31T09:28:42;97032.69;;;18.66;48.90
55171;BME280;41060;47.510;8.680;2023-08-31T09:31:09;97031.53;;;18.60;48.51
55171;BME280;41060;47.510;8.680;2023-08-31T09:33:49;97020.97;;;18.67;48.80
55171;BME280;41060;47.510;8.680;2023-08-31T09:36:17;97019.19;;;18.90;48.74
55171;BME280;41060;47.510;8.680;2023-08-31T09:38:44;97018.88;;;19.08;48.18
55171;BME280;41060;47.510;8.680;2023-08-31T09:41:11;97022.91;;;19.12;48.20
55171;BME280;41060;47.510;8.680;2023-08-31T09:43:38;97015.44;;;19.22;48.00
55171;BME280;41060;47.510;8.680;2023-08-31T09:46:06;97014.53;;;19.30;47.58
55171;BME280;41060;47.510;8.680;2023-08-31T09:48:34;97017.06;;;19.31;46.83
55171;BME280;41060;47.510;8.680;2023-08-31T09:51:04;97026.44;;;18.82;46.84
55171;BME280;41060;47.510;8.680;2023-08-31T09:53:31;97018.81;;;18.93;48.22
55171;BME280;41060;47.510;8.680;2023-08-31T09:55:58;97012.13;;;19.20;47.62
55171;BME280;41060;47.510;8.680;2023-08-31T09:58:27;96982.22;;;19.00;47.13
55171;BME280;41060;47.510;8.680;2023-08-31T10:00:54;97018.50;;;19.19;47.35
55171;BME280;41060;47.510;8.680;2023-08-31T10:03:22;97018.56;;;19.34;47.27
55171;BME280;41060;47.510;8.680;2023-08-31T10:05:50;97009.00;;;19.31;46.57
55171;BME280;41060;47.510;8.680;2023-08-31T10:08:17;97015.63;;;19.43;46.54
55171;BME280;41060;47.510;8.680;2023-08-31T10:10:44;97014.56;;;19.52;46.61
55171;BME280;41060;47.510;8.680;2023-08-31T10:13:12;97019.50;;;19.18;46.52
55171;BME280;41060;47.510;8.680;2023-08-31T10:15:38;97017.75;;;19.02;45.60
55171;BME280;41060;47.510;8.680;2023-08-31T10:18:06;96982.25;;;18.61;46.68
55171;BME280;41060;47.510;8.680;2023-08-31T10:20:35;97018.13;;;18.68;48.00
55171;BME280;41060;47.510;8.680;2023-08-31T10:23:04;97000.22;;;18.53;47.98
55171;BME280;41060;47.510;8.680;2023-08-31T10:26:01;97027.31;;;18.66;48.21
55171;BME280;41060;47.510;8.680;2023-08-31T10:28:29;97020.25;;;18.26;48.37
55171;BME280;41060;47.510;8.680;2023-08-31T10:31:03;97018.97;;;17.97;48.69
55171;BME280;41060;47.510;8.680;2023-08-31T10:33:31;96988.19;;;17.93;48.58
55171;BME280;41060;47.510;8.680;2023-08-31T10:36:00;97016.94;;;18.16;48.44
55171;BME280;41060;47.510;8.680;2023-08-31T10:38:28;97013.25;;;18.17;48.58
55171;BME280;41060;47.510;8.680;2023-08-31T10:41:17;97020.91;;;18.28;48.10
55171;BME280;41060;47.510;8.680;2023-08-31T10:43:46;97010.44;;;18.49;47.66
55171;BME280;41060;47.510;8.680;2023-08-31T10:46:16;97017.44;;;18.66;47.55
55171;BME280;41060;47.510;8.680;2023-08-31T10:48:52;97014.66;;;18.91;47.44
55171;BME280;41060;47.510;8.680;2023-08-31T10:51:25;97016.38;;;18.84;46.56
55171;BME280;41060;47.510;8.680;2023-08-31T10:54:04;97014.09;;;18.95;45.94
55171;BME280;41060;47.510;8.680;2023-08-31T10:56:31;97008.63;;;18.89;45.71
55171;BME280;41060;47.510;8.680;2023-08-31T10:58:58;97012.56;;;19.01;45.84
55171;BME280;41060;47.510;8.680;2023-08-31T11:01:56;97015.75;;;19.27;45.34
55171;BME280;41060;47.510;8.680;2023-08-31T11:04:24;97013.00;;;19.35;45.44
55171;BME280;41060;47.510;8.680;2023-08-31T11:07:15;97000.53;;;19.42;45.80
55171;BME280;41060;47.510;8.680;2023-08-31T11:09:43;97006.59;;;19.36;45.25
55171;BME280;41060;47.510;8.680;2023-08-31T11:12:10;96995.75;;;19.30;44.88
55171;BME280;41060;47.510;8.680;2023-08-31T11:14:37;96997.47;;;19.45;44.53
55171;BME280;41060;47.510;8.680;2023-08-31T11:17:05;97012.28;;;19.41;44.52
55171;BME280;41060;47.510;8.680;2023-08-31T11:19:33;97001.44;;;19.35;44.85
55171;BME280;41060;47.510;8.680;2023-08-31T11:22:00;97006.13;;;19.10;44.50
55171;BME280;41060;47.510;8.680;2023-08-31T11:24:29;96998.91;;;19.10;45.66
55171;BME280;41060;47.510;8.680;2023-08-31T11:26:56;97002.34;;;19.27;45.45
55171;BME280;41060;47.510;8.680;2023-08-31T11:29:23;96994.31;;;19.50;45.02
55171;BME280;41060;47.510;8.680;2023-08-31T11:31:50;96987.66;;;19.61;45.35
55171;BME280;41060;47.510;8.680;2023-08-31T11:34:17;96982.28;;;19.61;43.88
55171;BME280;41060;47.510;8.680;2023-08-31T11:36:45;96993.06;;;19.30;43.67
55171;BME280;41060;47.510;8.680;2023-08-31T11:39:13;96992.50;;;19.19;44.83
55171;BME280;41060;47.510;8.680;2023-08-31T11:41:42;96997.31;;;19.70;44.47
55171;BME280;41060;47.510;8.680;2023-08-31T11:44:09;96985.31;;;19.80;43.80
55171;BME280;41060;47.510;8.680;2023-08-31T11:46:37;96986.69;;;19.91;43.46
55171;BME280;41060;47.510;8.680;2023-08-31T11:49:05;96988.72;;;20.04;43.42
55171;BME280;41060;47.510;8.680;2023-08-31T11:51:34;96986.50;;;19.78;43.19
55171;BME280;41060;47.510;8.680;2023-08-31T11:54:04;96992.72;;;19.93;42.66
55171;BME280;41060;47.510;8.680;2023-08-31T11:56:42;96997.63;;;19.89;42.74
55171;BME280;41060;47.510;8.680;2023-08-31T11:59:10;96988.25;;;19.71;42.84
55171;BME280;41060;47.510;8.680;2023-08-31T12:01:38;96989.03;;;20.09;42.53
55171;BME280;41060;47.510;8.680;2023-08-31T12:04:13;96993.19;;;20.11;42.27
55171;BME280;41060;47.510;8.680;2023-08-31T12:06:46;96998.16;;;20.37;42.50
55171;BME280;41060;47.510;8.680;2023-08-31T12:09:13;96996.44;;;20.07;42.00
55171;BME280;41060;47.510;8.680;2023-08-31T12:11:41;96998.28;;;20.21;42.82
55171;BME280;41060;47.510;8.680;2023-08-31T12:14:18;97001.16;;;20.19;41.84
55171;BME280;41060;47.510;8.680;2023-08-31T12:16:46;96999.38;;;19.97;41.38
55171;BME280;41060;47.510;8.680;2023-08-31T12:19:13;97000.97;;;19.91;42.20
55171;BME280;41060;47.510;8.680;2023-08-31T12:21:39;96996.69;;;19.97;42.08
55171;BME280;41060;47.510;8.680;2023-08-31T12:24:09;97003.75;;;19.61;42.43
55171;BME280;41060;47.510;8.680;2023-08-31T12:26:35;97001.56;;;19.41;41.96
55171;BME280;41060;47.510;8.680;2023-08-31T12:29:03;97006.00;;;19.57;43.04
55171;BME280;41060;47.510;8.680;2023-08-31T12:31:31;97004.91;;;19.81;42.80
55171;BME280;41060;47.510;8.680;2023-08-31T12:33:58;96999.88;;;19.63;42.95
55171;BME280;41060;47.510;8.680;2023-08-31T12:36:25;96997.78;;;19.88;43.48
55171;BME280;41060;47.510;8.680;2023-08-31T12:38:52;96997.09;;;19.94;43.41
55171;BME280;41060;47.510;8.680;2023-08-31T12:41:19;96988.81;;;20.10;42.76
55171;BME280;41060;47.510;8.680;2023-08-31T12:43:46;96985.25;;;20.32;42.13
55171;BME280;41060;47.510;8.680;2023-08-31T12:46:15;96988.81;;;20.10;41.61
55171;BME280;41060;47.510;8.680;2023-08-31T12:48:42;96987.19;;;20.09;42.25
55171;BME280;41060;47.510;8.680;2023-08-31T12:51:08;96989.25;;;20.37;42.22
55171;BME280;41060;47.510;8.680;2023-08-31T12:53:37;96990.19;;;20.29;42.30
55171;BME280;41060;47.510;8.680;2023-08-31T12:56:04;96989.31;;;20.58;42.15
55171;BME280;41060;47.510;8.680;2023-08-31T12:58:31;96985.28;;;20.83;42.75
55171;BME280;41060;47.510;8.680;2023-08-31T13:00:58;96994.59;;;20.51;42.19
55171;BME280;41060;47.510;8.680;2023-08-31T13:03:26;96993.13;;;20.34;41.34
55171;BME280;41060;47.510;8.680;2023-08-31T13:05:53;96996.56;;;20.43;41.20